Time;durP1;ratioP1;P1;durP2;ratioP2;P2;SDS_P1;SDS_P2;PMS_P1;PMS_P2;Temp;Humidity;BMP_temperature;BMP_pressure;BME280_temperature;BME280_humidity;BME280_pressure;Samples;Min_cycle;Max_cycle;Signal;HPM_P1;HPM_P2
2021/09/13 00:00:07;;;;;;;5.75;3.45;;;;;;;;;;5046871;28;20041;-58
2021/09/13 00:02:33;;;;;;;7.13;3.42;;;;;;;;;;5048225;28;20111;-57
2021/09/13 00:04:59;;;;;;;5.97;3.63;;;;;;;;;;5065002;28;20844;-58
2021/09/13 00:07:25;;;;;;;5.90;3.70;;;;;;;;;;5045373;28;20021;-58
2021/09/13 00:09:51;;;;;;;7.25;3.60;;;;;;;;;;5055164;28;20021;-56
2021/09/13 00:12:17;;;;;;;10.60;3.80;;;;;;;;;;5065807;28;20099;-56
2021/09/13 00:14:44;;;;;;;7.20;4.25;;;;;;;;;;5063299;28;20029;-56
2021/09/13 00:17:10;;;;;;;6.22;4.03;;;;;;;;;;5061838;28;20091;-58
2021/09/13 00:19:37;;;;;;;5.82;3.90;;;;;;;;;;5053742;28;20067;-58
2021/09/13 00:22:03;;;;;;;7.07;3.72;;;;;;;;;;5061202;28;20024;-58
2021/09/13 00:24:29;;;;;;;4.80;3.22;;;;;;;;;;5053346;28;20029;-58
2021/09/13 00:26:55;;;;;;;6.55;3.88;;;;;;;;;;5056925;28;20365;-56
2021/09/13 00:29:21;;;;;;;5.60;3.90;;;;;;;;;;5059704;28;20029;-57
2021/09/13 00:31:47;;;;;;;5.35;3.58;;;;;;;;;;5054782;28;20029;-58
2021/09/13 00:34:13;;;;;;;7.20;4.50;;;;;;;;;;5046705;28;20049;-58
2021/09/13 00:36:39;;;;;;;8.20;3.63;;;;;;;;;;5056308;28;20120;-59
2021/09/13 00:39:05;;;;;;;7.47;3.83;;;;;;;;;;5053101;28;20112;-58
2021/09/13 00:41:31;;;;;;;7.28;3.50;;;;;;;;;;5042340;28;20128;-58
2021/09/13 00:43:58;;;;;;;6.40;4.00;;;;;;;;;;5058164;28;20025;-57
2021/09/13 00:46:24;;;;;;;6.35;4.03;;;;;;;;;;5065122;28;20070;-58
2021/09/13 00:48:50;;;;;;;6.93;4.03;;;;;;;;;;5055992;28;20024;-56
2021/09/13 00:51:16;;;;;;;5.55;3.45;;;;;;;;;;5060263;28;20025;-56
2021/09/13 00:53:42;;;;;;;5.90;3.42;;;;;;;;;;5062144;28;20025;-57
2021/09/13 00:56:08;;;;;;;5.30;3.45;;;;;;;;;;5062814;28;20025;-57
2021/09/13 00:58:35;;;;;;;6.10;3.83;;;;;;;;;;5062448;28;20034;-54
2021/09/13 01:01:01;;;;;;;6.18;3.92;;;;;;;;;;5054465;28;20525;-58
2021/09/13 01:03:27;;;;;;;7.80;4.18;;;;;;;;;;5065015;28;20024;-58
2021/09/13 01:05:53;;;;;;;11.93;4.57;;;;;;;;;;5053053;28;20465;-57
2021/09/13 01:08:19;;;;;;;7.07;4.47;;;;;;;;;;5044654;28;20044;-56
2021/09/13 01:10:47;;;;;;;7.72;4.40;;;;;;;;;;5050745;28;20045;-57
2021/09/13 01:13:13;;;;;;;5.97;3.65;;;;;;;;;;5054078;28;20502;-56
2021/09/13 01:15:40;;;;;;;6.95;4.20;;;;;;;;;;5062621;28;20021;-57
2021/09/13 01:18:06;;;;;;;6.53;4.10;;;;;;;;;;5052697;28;20145;-57
2021/09/13 01:20:32;;;;;;;5.80;4.05;;;;;;;;;;5044829;28;20541;-58
2021/09/13 01:23:00;;;;;;;6.53;4.20;;;;;;;;;;5048075;28;20037;-57
2021/09/13 01:25:26;;;;;;;7.38;4.13;;;;;;;;;;5049450;28;20044;-58
2021/09/13 01:27:52;;;;;;;7.70;4.28;;;;;;;;;;5046819;28;20024;-58
2021/09/13 01:30:18;;;;;;;5.35;3.70;;;;;;;;;;5059469;28;20025;-55
2021/09/13 01:32:44;;;;;;;8.25;4.10;;;;;;;;;;5051257;28;20566;-57
2021/09/13 01:35:10;;;;;;;4.95;3.45;;;;;;;;;;5051181;28;20030;-57
2021/09/13 01:37:36;;;;;;;7.68;4.78;;;;;;;;;;5042763;28;20053;-58
2021/09/13 01:40:02;;;;;;;7.53;4.25;;;;;;;;;;5050396;28;20061;-57
2021/09/13 01:42:28;;;;;;;5.53;3.67;;;;;;;;;;5055577;28;20413;-56
2021/09/13 01:44:54;;;;;;;6.53;3.80;;;;;;;;;;5055297;28;20082;-58
2021/09/13 01:47:20;;;;;;;7.07;4.47;;;;;;;;;;5056081;28;20368;-57
2021/09/13 01:49:46;;;;;;;6.70;3.85;;;;;;;;;;5062981;28;20086;-57
2021/09/13 01:52:12;;;;;;;8.50;4.38;;;;;;;;;;5042102;28;20065;-53
2021/09/13 01:54:38;;;;;;;6.15;3.92;;;;;;;;;;5054292;28;20811;-58
2021/09/13 01:57:04;;;;;;;9.23;4.57;;;;;;;;;;5066388;28;20368;-56
2021/09/13 01:59:30;;;;;;;6.93;4.35;;;;;;;;;;5051240;28;20141;-56
2021/09/13 02:01:56;;;;;;;6.65;4.07;;;;;;;;;;5055614;28;20021;-57
2021/09/13 02:04:22;;;;;;;6.78;3.83;;;;;;;;;;5059476;28;20059;-57
2021/09/13 02:06:48;;;;;;;5.50;3.90;;;;;;;;;;5054358;28;20112;-58
2021/09/13 02:09:15;;;;;;;7.10;4.13;;;;;;;;;;5051444;28;20116;-58
2021/09/13 02:11:42;;;;;;;6.88;4.07;;;;;;;;;;5055104;28;20412;-55
2021/09/13 02:14:07;;;;;;;7.82;4.55;;;;;;;;;;5060181;28;20024;-58
2021/09/13 02:16:33;;;;;;;6.82;4.22;;;;;;;;;;5055669;28;20051;-58
2021/09/13 02:18:59;;;;;;;6.70;4.28;;;;;;;;;;5058689;28;20064;-58
2021/09/13 02:21:26;;;;;;;8.23;4.40;;;;;;;;;;5056970;28;20032;-56
2021/09/13 02:23:52;;;;;;;6.50;3.97;;;;;;;;;;5062188;28;20033;-56
2021/09/13 02:26:18;;;;;;;6.85;4.53;;;;;;;;;;5040964;28;20076;-57
2021/09/13 02:28:44;;;;;;;7.97;5.18;;;;;;;;;;5052848;28;20028;-58
2021/09/13 02:31:10;;;;;;;8.25;4.43;;;;;;;;;;5050232;28;20466;-58
2021/09/13 02:33:36;;;;;;;7.63;4.85;;;;;;;;;;5055253;28;20053;-57
2021/09/13 02:36:02;;;;;;;6.55;4.43;;;;;;;;;;5036282;28;20457;-57
2021/09/13 02:38:28;;;;;;;8.82;4.88;;;;;;;;;;5045311;28;20094;-58
2021/09/13 02:40:54;;;;;;;6.60;4.47;;;;;;;;;;5048640;28;21749;-56
2021/09/13 02:43:20;;;;;;;5.97;4.13;;;;;;;;;;5054243;28;20040;-57
2021/09/13 02:45:46;;;;;;;7.53;4.47;;;;;;;;;;5051513;28;20033;-57
2021/09/13 02:48:12;;;;;;;10.70;5.32;;;;;;;;;;5040364;28;20040;-58
2021/09/13 02:50:38;;;;;;;6.55;4.40;;;;;;;;;;5056380;28;20398;-55
2021/09/13 02:53:04;;;;;;;8.02;4.88;;;;;;;;;;5046534;28;20040;-58
2021/09/13 02:55:30;;;;;;;6.10;4.72;;;;;;;;;;5059804;28;20036;-58
2021/09/13 02:57:56;;;;;;;9.55;5.28;;;;;;;;;;5068615;28;20109;-58
2021/09/13 03:00:22;;;;;;;7.15;4.30;;;;;;;;;;5051215;28;20043;-58
2021/09/13 03:02:49;;;;;;;9.52;4.95;;;;;;;;;;5057872;28;20112;-55
2021/09/13 03:05:15;;;;;;;7.72;4.13;;;;;;;;;;5055974;28;20029;-58
2021/09/13 03:07:41;;;;;;;9.15;4.47;;;;;;;;;;5048358;28;20446;-58
2021/09/13 03:10:07;;;;;;;8.80;4.70;;;;;;;;;;5043659;28;20033;-56
2021/09/13 03:12:33;;;;;;;6.80;4.40;;;;;;;;;;5051896;28;20594;-57
2021/09/13 03:15:01;;;;;;;8.52;5.05;;;;;;;;;;5055376;28;20380;-57
2021/09/13 03:17:27;;;;;;;11.88;5.53;;;;;;;;;;5053060;28;20056;-56
2021/09/13 03:19:53;;;;;;;6.13;4.03;;;;;;;;;;5053924;28;20076;-55
2021/09/13 03:22:19;;;;;;;7.13;4.63;;;;;;;;;;5053255;28;20029;-57
2021/09/13 03:24:45;;;;;;;10.30;5.30;;;;;;;;;;5056443;28;20041;-54
2021/09/13 03:27:11;;;;;;;7.65;4.68;;;;;;;;;;5046950;28;20040;-56
2021/09/13 03:29:37;;;;;;;6.97;4.80;;;;;;;;;;5044125;28;20061;-57
2021/09/13 03:32:03;;;;;;;9.32;5.22;;;;;;;;;;5055667;28;20036;-56
2021/09/13 03:34:29;;;;;;;9.70;5.05;;;;;;;;;;5045516;28;20026;-58
2021/09/13 03:36:58;;;;;;;8.80;4.50;;;;;;;;;;5057076;28;20469;-57
2021/09/13 03:39:27;;;;;;;8.80;4.85;;;;;;;;;;5048973;28;20143;-56
2021/09/13 03:41:53;;;;;;;8.85;4.68;;;;;;;;;;5044188;28;20362;-58
2021/09/13 03:44:19;;;;;;;7.97;4.85;;;;;;;;;;5058559;28;20041;-58
2021/09/13 03:46:45;;;;;;;7.13;4.55;;;;;;;;;;5037205;28;20024;-58
2021/09/13 03:49:11;;;;;;;9.63;4.78;;;;;;;;;;5052190;28;20038;-58
2021/09/13 03:51:37;;;;;;;10.57;5.43;;;;;;;;;;5048521;28;20043;-58
2021/09/13 03:54:04;;;;;;;7.80;4.68;;;;;;;;;;5063503;28;20078;-58
2021/09/13 03:56:30;;;;;;;8.07;4.75;;;;;;;;;;5068485;28;20052;-57
2021/09/13 03:58:56;;;;;;;9.35;4.90;;;;;;;;;;5050325;28;20090;-58
2021/09/13 04:01:23;;;;;;;8.30;5.05;;;;;;;;;;5058046;28;20025;-55
2021/09/13 04:03:50;;;;;;;7.47;4.82;;;;;;;;;;5044578;28;20421;-58
2021/09/13 04:06:37;;;;;;;8.27;5.35;;;;;;;;;;5049199;28;20844;-57
2021/09/13 04:09:39;;;;;;;8.45;5.53;;;;;;;;;;5055880;28;20025;-57
2021/09/13 04:11:57;;;;;;;7.78;5.07;;;;;;;;;;5060040;28;20040;-58
2021/09/13 04:14:24;;;;;;;9.13;5.07;;;;;;;;;;5060869;28;20582;-58
2021/09/13 04:16:50;;;;;;;7.82;4.88;;;;;;;;;;5054374;28;20453;-56
2021/09/13 04:19:16;;;;;;;7.07;4.90;;;;;;;;;;5054198;28;20132;-58
2021/09/13 04:21:42;;;;;;;7.47;5.05;;;;;;;;;;5050482;28;20029;-56
2021/09/13 04:24:08;;;;;;;8.90;5.22;;;;;;;;;;5052221;28;20075;-57
2021/09/13 04:26:35;;;;;;;10.13;5.82;;;;;;;;;;5035038;28;20430;-53
2021/09/13 04:29:01;;;;;;;8.02;5.10;;;;;;;;;;5054099;28;20111;-57
2021/09/13 04:31:27;;;;;;;8.93;5.20;;;;;;;;;;5054455;28;20857;-56
2021/09/13 04:33:53;;;;;;;10.35;5.82;;;;;;;;;;5054358;28;20484;-57
2021/09/13 04:36:19;;;;;;;8.48;5.35;;;;;;;;;;5052986;28;20060;-54
2021/09/13 04:38:46;;;;;;;8.43;4.90;;;;;;;;;;5045509;28;20888;-56
2021/09/13 04:41:12;;;;;;;8.98;4.88;;;;;;;;;;5045681;28;20090;-56
2021/09/13 04:43:38;;;;;;;10.98;5.50;;;;;;;;;;5055541;28;20033;-55
2021/09/13 04:46:04;;;;;;;9.95;5.10;;;;;;;;;;5047704;28;20034;-58
2021/09/13 04:48:30;;;;;;;8.30;4.93;;;;;;;;;;5041014;28;20029;-57
2021/09/13 04:50:56;;;;;;;9.05;4.68;;;;;;;;;;5050631;28;20508;-58
2021/09/13 04:53:22;;;;;;;8.63;4.65;;;;;;;;;;5045204;28;20025;-58
2021/09/13 04:55:48;;;;;;;8.05;5.00;;;;;;;;;;5057812;28;20033;-58
2021/09/13 04:58:14;;;;;;;7.75;5.00;;;;;;;;;;5059057;28;20060;-58
2021/09/13 05:00:43;;;;;;;8.10;5.00;;;;;;;;;;5053266;28;20033;-55
2021/09/13 05:03:09;;;;;;;8.63;5.25;;;;;;;;;;5053978;28;20122;-56
2021/09/13 05:05:35;;;;;;;10.98;5.93;;;;;;;;;;5053341;28;20047;-56
2021/09/13 05:08:01;;;;;;;10.00;5.47;;;;;;;;;;5049552;28;20464;-58
2021/09/13 05:10:27;;;;;;;8.70;5.47;;;;;;;;;;5043757;28;20047;-56
2021/09/13 05:12:53;;;;;;;8.02;4.55;;;;;;;;;;5051397;28;20024;-57
2021/09/13 05:15:19;;;;;;;9.90;5.30;;;;;;;;;;5025601;28;20033;-57
2021/09/13 05:17:45;;;;;;;7.95;5.25;;;;;;;;;;5060197;28;20033;-56
2021/09/13 05:20:13;;;;;;;9.07;5.03;;;;;;;;;;5046655;28;20751;-56
2021/09/13 05:22:39;;;;;;;8.23;5.20;;;;;;;;;;5042268;28;20389;-57
2021/09/13 05:25:05;;;;;;;6.22;4.05;;;;;;;;;;5049574;28;20033;-56
2021/09/13 05:27:31;;;;;;;7.38;5.28;;;;;;;;;;5042405;28;20037;-53
2021/09/13 05:29:57;;;;;;;8.70;4.95;;;;;;;;;;5042441;28;20056;-56
2021/09/13 05:32:23;;;;;;;8.95;4.90;;;;;;;;;;5046514;28;20110;-55
2021/09/13 05:34:49;;;;;;;7.55;4.63;;;;;;;;;;5073219;28;20392;-58
2021/09/13 05:37:15;;;;;;;6.90;4.80;;;;;;;;;;5072992;28;20028;-57
2021/09/13 05:39:41;;;;;;;6.97;4.82;;;;;;;;;;5051463;28;20034;-58
2021/09/13 05:42:07;;;;;;;9.50;5.57;;;;;;;;;;5060121;28;20029;-58
2021/09/13 05:44:33;;;;;;;10.45;4.90;;;;;;;;;;5065444;28;20111;-57
2021/09/13 05:46:59;;;;;;;7.63;4.57;;;;;;;;;;5061609;28;20029;-56
2021/09/13 05:49:25;;;;;;;7.43;5.15;;;;;;;;;;5040911;28;20083;-57
2021/09/13 05:51:52;;;;;;;9.20;5.80;;;;;;;;;;5068893;28;20023;-56
2021/09/13 05:54:24;;;;;;;8.73;5.75;;;;;;;;;;5061213;28;20036;-57
2021/09/13 05:56:52;;;;;;;6.80;4.72;;;;;;;;;;5060299;28;20125;-56
2021/09/13 05:59:18;;;;;;;10.65;5.03;;;;;;;;;;5045949;28;20022;-57
2021/09/13 06:01:44;;;;;;;9.20;5.00;;;;;;;;;;5046467;28;20115;-57
2021/09/13 06:04:10;;;;;;;7.25;4.78;;;;;;;;;;5044687;28;20028;-57
2021/09/13 06:06:36;;;;;;;11.35;4.80;;;;;;;;;;5059138;28;20032;-54
2021/09/13 06:09:02;;;;;;;8.90;5.15;;;;;;;;;;5040421;28;20430;-57
2021/09/13 06:11:28;;;;;;;7.57;5.55;;;;;;;;;;5059116;28;20063;-56
2021/09/13 06:13:54;;;;;;;12.35;5.75;;;;;;;;;;5048162;28;20442;-57
2021/09/13 06:16:20;;;;;;;11.25;5.47;;;;;;;;;;5050023;28;20254;-56
2021/09/13 06:18:46;;;;;;;8.00;4.63;;;;;;;;;;5044033;28;20057;-57
2021/09/13 06:21:12;;;;;;;9.13;4.78;;;;;;;;;;5042165;28;20118;-54
2021/09/13 06:23:38;;;;;;;10.40;4.70;;;;;;;;;;5053314;28;20040;-57
2021/09/13 06:26:04;;;;;;;6.45;4.45;;;;;;;;;;5052948;28;20028;-56
2021/09/13 06:28:30;;;;;;;7.38;4.90;;;;;;;;;;5043060;28;20107;-55
2021/09/13 06:30:56;;;;;;;6.35;4.40;;;;;;;;;;5053889;28;20094;-56
2021/09/13 06:33:22;;;;;;;7.40;4.72;;;;;;;;;;5062052;28;20052;-57
2021/09/13 06:35:48;;;;;;;6.10;4.03;;;;;;;;;;5044868;28;20034;-56
2021/09/13 06:38:14;;;;;;;7.88;4.30;;;;;;;;;;5044012;28;20459;-56
2021/09/13 06:40:40;;;;;;;8.20;4.60;;;;;;;;;;5037852;28;20112;-58
2021/09/13 06:43:07;;;;;;;5.10;3.58;;;;;;;;;;5042705;28;20116;-57
2021/09/13 06:45:41;;;;;;;7.55;3.90;;;;;;;;;;5037635;28;20036;-57
2021/09/13 06:48:09;;;;;;;6.38;3.47;;;;;;;;;;5038398;28;20521;-57
2021/09/13 06:50:35;;;;;;;4.88;3.45;;;;;;;;;;5046845;28;20033;-56
2021/09/13 06:53:01;;;;;;;5.90;3.80;;;;;;;;;;5049320;28;20032;-57
2021/09/13 06:55:27;;;;;;;5.28;3.60;;;;;;;;;;5040098;28;20377;-57
2021/09/13 06:57:53;;;;;;;7.57;4.07;;;;;;;;;;5041029;28;20051;-56
2021/09/13 07:00:20;;;;;;;4.90;3.55;;;;;;;;;;5041215;28;20033;-57
2021/09/13 07:02:47;;;;;;;4.22;2.88;;;;;;;;;;5039854;28;20033;-58
2021/09/13 07:05:13;;;;;;;5.05;3.53;;;;;;;;;;5037489;28;20036;-57
2021/09/13 07:07:39;;;;;;;5.00;3.25;;;;;;;;;;5037228;28;20485;-58
2021/09/13 07:10:06;;;;;;;11.13;3.45;;;;;;;;;;5036285;28;20096;-58
2021/09/13 07:12:32;;;;;;;4.38;3.10;;;;;;;;;;5035640;28;20028;-57
2021/09/13 07:14:58;;;;;;;4.97;3.10;;;;;;;;;;5040232;28;20372;-56
2021/09/13 07:17:24;;;;;;;5.65;3.00;;;;;;;;;;5040443;28;20481;-57
2021/09/13 07:19:52;;;;;;;6.68;2.97;;;;;;;;;;5041305;28;20056;-57
2021/09/13 07:22:18;;;;;;;6.60;3.55;;;;;;;;;;5038996;28;20029;-57
2021/09/13 07:24:44;;;;;;;4.30;2.97;;;;;;;;;;5039904;28;20026;-58
2021/09/13 07:27:10;;;;;;;5.03;3.45;;;;;;;;;;5040775;28;20041;-57
2021/09/13 07:29:37;;;;;;;5.18;3.53;;;;;;;;;;5039411;28;20125;-58
2021/09/13 07:32:03;;;;;;;5.78;3.30;;;;;;;;;;5043049;28;20032;-58
2021/09/13 07:34:30;;;;;;;5.38;2.95;;;;;;;;;;5048933;28;20025;-58
2021/09/13 07:36:56;;;;;;;10.85;3.50;;;;;;;;;;5040235;28;20017;-56
2021/09/13 07:39:23;;;;;;;5.47;3.08;;;;;;;;;;5037936;28;20063;-57
2021/09/13 07:41:49;;;;;;;5.55;2.88;;;;;;;;;;5037987;28;20083;-57
2021/09/13 07:44:15;;;;;;;8.70;3.17;;;;;;;;;;5042263;28;20036;-58
2021/09/13 07:46:41;;;;;;;5.68;2.55;;;;;;;;;;5047357;28;20037;-57
2021/09/13 07:49:07;;;;;;;3.95;2.88;;;;;;;;;;5038819;28;20033;-58
2021/09/13 07:51:33;;;;;;;5.78;2.92;;;;;;;;;;5042272;28;20079;-58
2021/09/13 07:53:59;;;;;;;3.97;2.97;;;;;;;;;;5037877;28;20036;-58
2021/09/13 07:56:25;;;;;;;6.03;2.35;;;;;;;;;;5038864;28;20025;-56
2021/09/13 07:58:51;;;;;;;5.13;2.50;;;;;;;;;;5038418;28;20492;-58
2021/09/13 08:01:17;;;;;;;4.65;2.42;;;;;;;;;;5041194;28;20032;-56
2021/09/13 08:03:43;;;;;;;4.20;2.40;;;;;;;;;;5043002;28;20033;-57
2021/09/13 08:06:09;;;;;;;3.05;2.05;;;;;;;;;;5042060;28;20726;-58
2021/09/13 08:08:35;;;;;;;2.67;2.00;;;;;;;;;;5041514;28;20116;-57
2021/09/13 08:11:02;;;;;;;6.13;2.47;;;;;;;;;;5043812;28;20068;-56
2021/09/13 08:13:29;;;;;;;2.08;1.58;;;;;;;;;;5040804;28;20096;-58
2021/09/13 08:15:55;;;;;;;2.20;1.70;;;;;;;;;;5040804;28;20021;-56
2021/09/13 08:18:21;;;;;;;4.30;2.38;;;;;;;;;;5039766;28;20053;-57
2021/09/13 08:20:47;;;;;;;3.05;2.10;;;;;;;;;;5041281;28;20128;-55
2021/09/13 08:23:13;;;;;;;4.50;1.70;;;;;;;;;;5039855;28;20108;-57
2021/09/13 08:25:39;;;;;;;2.40;1.58;;;;;;;;;;5039331;28;20053;-58
2021/09/13 08:28:05;;;;;;;3.10;1.70;;;;;;;;;;5038867;28;20367;-56
2021/09/13 08:30:32;;;;;;;2.08;1.52;;;;;;;;;;5040519;28;20508;-57
2021/09/13 08:32:59;;;;;;;2.22;1.70;;;;;;;;;;5041468;28;20025;-57
2021/09/13 08:35:25;;;;;;;2.20;1.45;;;;;;;;;;5041464;28;20029;-57
2021/09/13 08:37:51;;;;;;;4.93;2.38;;;;;;;;;;5042439;28;20040;-54
2021/09/13 08:40:17;;;;;;;3.55;2.05;;;;;;;;;;5041857;28;20078;-57
2021/09/13 08:42:45;;;;;;;3.03;1.48;;;;;;;;;;5042941;28;20037;-58
2021/09/13 08:45:12;;;;;;;3.92;2.25;;;;;;;;;;5038647;28;20029;-57
2021/09/13 08:47:51;;;;;;;5.60;2.22;;;;;;;;;;5040321;28;20036;-58
2021/09/13 08:50:38;;;;;;;2.67;1.80;;;;;;;;;;5038806;28;20020;-56
2021/09/13 08:53:06;;;;;;;2.75;1.67;;;;;;;;;;5040863;28;20025;-57
2021/09/13 08:55:32;;;;;;;3.45;1.63;;;;;;;;;;5045740;28;20354;-57
2021/09/13 08:57:59;;;;;;;2.72;1.60;;;;;;;;;;5025161;28;20091;-58
2021/09/13 09:00:25;;;;;;;2.85;1.60;;;;;;;;;;5041846;28;20197;-57
2021/09/13 09:02:52;;;;;;;3.60;1.65;;;;;;;;;;5020627;28;20037;-56
2021/09/13 09:05:19;;;;;;;2.00;1.27;;;;;;;;;;5040230;28;20124;-57
2021/09/13 09:07:48;;;;;;;2.72;1.55;;;;;;;;;;5039930;28;20020;-56
2021/09/13 09:10:22;;;;;;;3.10;1.90;;;;;;;;;;5040959;28;20702;-56
2021/09/13 09:12:56;;;;;;;2.22;1.40;;;;;;;;;;5041614;28;20027;-56
2021/09/13 09:15:22;;;;;;;2.17;1.40;;;;;;;;;;5040899;28;20025;-56
2021/09/13 09:17:52;;;;;;;3.75;2.20;;;;;;;;;;5044908;28;20030;-56
2021/09/13 09:20:18;;;;;;;2.00;1.45;;;;;;;;;;5038952;28;20061;-58
2021/09/13 09:22:45;;;;;;;4.10;1.75;;;;;;;;;;5038969;28;20156;-58
2021/09/13 09:25:24;;;;;;;2.78;1.20;;;;;;;;;;5036686;28;20068;-58
2021/09/13 09:27:54;;;;;;;2.25;1.27;;;;;;;;;;5038715;28;20032;-59
2021/09/13 09:30:21;;;;;;;2.58;1.35;;;;;;;;;;5038011;28;20096;-59
2021/09/13 09:33:07;;;;;;;2.40;1.40;;;;;;;;;;5036311;28;20044;-57
2021/09/13 09:35:47;;;;;;;2.92;1.02;;;;;;;;;;5038895;28;20025;-58
2021/09/13 09:38:32;;;;;;;2.97;1.50;;;;;;;;;;5041544;28;20097;-58
2021/09/13 09:41:05;;;;;;;3.08;1.30;;;;;;;;;;5038581;28;20081;-56
2021/09/13 09:43:31;;;;;;;;;;;;;;;;;;5037773;28;20044;-56
2021/09/13 09:45:58;;;;;;;1.55;1.10;;;;;;;;;;5036532;28;19913;-58
2021/09/13 09:48:32;;;;;;;1.20;0.90;;;;;;;;;;5040901;28;20032;-57
2021/09/13 09:50:58;;;;;;;2.22;1.25;;;;;;;;;;5034157;28;20022;-56
2021/09/13 09:53:29;;;;;;;1.80;1.10;;;;;;;;;;5045642;28;20076;-58
2021/09/13 09:56:10;;;;;;;1.80;1.05;;;;;;;;;;5043022;28;20424;-58
2021/09/13 09:58:56;;;;;;;2.83;1.20;;;;;;;;;;5057784;28;20021;-57
2021/09/13 10:01:32;;;;;;;1.25;0.93;;;;;;;;;;5055059;28;20820;-58
2021/09/13 10:04:11;;;;;;;1.48;1.08;;;;;;;;;;5027561;28;20493;-58
2021/09/13 10:06:37;;;;;;;2.47;1.00;;;;;;;;;;5058307;28;20062;-55
2021/09/13 10:09:03;;;;;;;2.35;1.08;;;;;;;;;;5049857;28;20434;-57
2021/09/13 10:11:29;;;;;;;3.30;1.05;;;;;;;;;;5042976;28;20099;-56
2021/09/13 10:13:55;;;;;;;1.73;1.23;;;;;;;;;;5055623;28;20435;-57
2021/09/13 10:16:21;;;;;;;1.15;0.88;;;;;;;;;;5059357;28;20104;-57
2021/09/13 10:18:48;;;;;;;1.15;0.90;;;;;;;;;;5052634;28;20175;-57
2021/09/13 10:21:14;;;;;;;1.42;0.77;;;;;;;;;;5054934;28;20134;-57
2021/09/13 10:23:40;;;;;;;1.10;0.90;;;;;;;;;;5056343;28;20380;-57
2021/09/13 10:26:06;;;;;;;0.82;0.77;;;;;;;;;;5055564;28;20104;-56
2021/09/13 10:28:32;;;;;;;2.33;0.70;;;;;;;;;;5050241;28;20087;-55
2021/09/13 10:30:58;;;;;;;1.08;0.85;;;;;;;;;;5068210;28;20031;-58
2021/09/13 10:33:23;;;;;;;2.25;0.82;;;;;;;;;;5047025;28;20021;-56
2021/09/13 10:35:54;;;;;;;1.20;0.80;;;;;;;;;;5052833;28;20028;-53
2021/09/13 10:38:38;;;;;;;2.20;1.13;;;;;;;;;;5055547;28;20108;-57
2021/09/13 10:41:04;;;;;;;3.70;0.90;;;;;;;;;;5047942;28;20024;-57
2021/09/13 10:43:30;;;;;;;2.53;0.90;;;;;;;;;;5044683;28;20041;-56
2021/09/13 10:45:56;;;;;;;4.35;1.20;;;;;;;;;;5045567;28;20030;-57
2021/09/13 10:48:23;;;;;;;1.35;0.98;;;;;;;;;;5037351;28;20112;-57
2021/09/13 10:50:56;;;;;;;2.97;1.10;;;;;;;;;;5049105;28;20070;-56
2021/09/13 10:53:22;;;;;;;1.30;0.90;;;;;;;;;;5045954;28;20377;-58
2021/09/13 10:55:55;;;;;;;1.80;1.20;;;;;;;;;;5048271;28;20400;-58
2021/09/13 10:58:21;;;;;;;;;;;;;;;;;;5063012;28;20032;-58
2021/09/13 11:00:53;;;;;;;2.63;1.25;;;;;;;;;;5023902;28;19936;-57
2021/09/13 11:03:34;;;;;;;1.13;0.85;;;;;;;;;;5045553;28;20537;-55
2021/09/13 11:06:18;;;;;;;2.38;1.20;;;;;;;;;;5045413;28;20064;-56
2021/09/13 11:08:48;;;;;;;2.33;1.50;;;;;;;;;;5035123;28;20039;-58
2021/09/13 11:11:16;;;;;;;2.22;1.17;;;;;;;;;;5039762;28;20044;-57
2021/09/13 11:13:43;;;;;;;1.30;0.93;;;;;;;;;;5057253;28;20028;-55
2021/09/13 11:16:10;;;;;;;4.78;1.02;;;;;;;;;;5031126;28;20021;-57
2021/09/13 11:18:42;;;;;;;3.05;1.13;;;;;;;;;;5064829;28;20052;-55
2021/09/13 11:21:14;;;;;;;2.85;1.60;;;;;;;;;;5051754;28;20037;-56
2021/09/13 11:23:40;;;;;;;1.40;1.23;;;;;;;;;;5047202;28;20690;-58
2021/09/13 11:26:06;;;;;;;2.42;1.40;;;;;;;;;;5030758;28;20029;-58
2021/09/13 11:28:32;;;;;;;2.05;1.30;;;;;;;;;;5055728;28;20479;-58
2021/09/13 11:30:58;;;;;;;1.52;1.00;;;;;;;;;;5052719;28;20099;-58
2021/09/13 11:33:24;;;;;;;3.83;1.10;;;;;;;;;;5045940;28;20033;-56
2021/09/13 11:35:56;;;;;;;1.45;0.93;;;;;;;;;;5042987;28;20500;-59
2021/09/13 11:38:22;;;;;;;1.30;1.00;;;;;;;;;;5053962;28;20044;-58
2021/09/13 11:40:49;;;;;;;1.77;1.02;;;;;;;;;;5042473;28;20031;-57
2021/09/13 11:43:15;;;;;;;1.45;1.17;;;;;;;;;;5035671;28;20037;-55
2021/09/13 11:45:41;;;;;;;1.40;1.10;;;;;;;;;;5049046;28;20027;-57
2021/09/13 11:48:07;;;;;;;2.40;1.10;;;;;;;;;;5048610;28;20462;-57
2021/09/13 11:50:36;;;;;;;1.67;1.02;;;;;;;;;;5036424;28;20025;-58
2021/09/13 11:53:12;;;;;;;1.55;1.10;;;;;;;;;;5053238;28;20461;-56
2021/09/13 11:55:38;;;;;;;1.92;1.25;;;;;;;;;;5040793;28;20029;-56
2021/09/13 11:58:07;;;;;;;1.65;0.93;;;;;;;;;;5037212;28;20049;-53
2021/09/13 12:00:35;;;;;;;1.33;0.82;;;;;;;;;;5041095;28;20029;-56
2021/09/13 12:03:05;;;;;;;1.50;0.80;;;;;;;;;;5044803;28;20055;-55
2021/09/13 12:05:38;;;;;;;1.95;1.20;;;;;;;;;;5031240;28;20041;-53
2021/09/13 12:08:09;;;;;;;2.00;1.30;;;;;;;;;;5046660;28;20036;-53
2021/09/13 12:10:36;;;;;;;1.60;0.80;;;;;;;;;;5036733;28;20112;-55
2021/09/13 12:13:02;;;;;;;7.07;1.83;;;;;;;;;;5033914;28;20044;-52
2021/09/13 12:15:31;;;;;;;1.33;0.70;;;;;;;;;;5043043;28;20025;-51
2021/09/13 12:17:57;;;;;;;1.42;0.88;;;;;;;;;;5039975;28;20029;-55
2021/09/13 12:20:25;;;;;;;0.80;0.60;;;;;;;;;;5058036;28;20131;-54
2021/09/13 12:22:58;;;;;;;1.35;0.82;;;;;;;;;;5035834;28;20041;-56
2021/09/13 12:25:24;;;;;;;;;;;;;;;;;;5047146;28;20028;-52
2021/09/13 12:27:51;;;;;;;1.27;0.68;;;;;;;;;;5042515;28;19963;-50
2021/09/13 12:30:25;;;;;;;0.85;0.55;;;;;;;;;;5057141;28;20082;-52
2021/09/13 12:32:53;;;;;;;1.30;0.88;;;;;;;;;;5048571;28;20020;-52
2021/09/13 12:35:29;;;;;;;1.27;0.90;;;;;;;;;;5045813;28;20080;-54
2021/09/13 12:37:55;;;;;;;1.05;0.75;;;;;;;;;;5064979;28;20029;-56
2021/09/13 12:40:21;;;;;;;1.48;0.68;;;;;;;;;;5045047;28;20469;-52
2021/09/13 12:42:53;;;;;;;2.75;0.85;;;;;;;;;;5044175;28;20108;-52
2021/09/13 12:45:20;;;;;;;1.75;0.98;;;;;;;;;;5047853;28;20078;-53
2021/09/13 12:47:53;;;;;;;1.85;0.80;;;;;;;;;;5045669;28;20460;-55
2021/09/13 12:50:33;;;;;;;2.17;0.80;;;;;;;;;;5043668;28;20165;-54
2021/09/13 12:53:00;;;;;;;1.85;1.17;;;;;;;;;;5048632;28;20021;-53
2021/09/13 12:55:27;;;;;;;1.00;0.70;;;;;;;;;;5047675;28;20083;-51
2021/09/13 12:57:54;;;;;;;1.42;0.90;;;;;;;;;;5046461;28;20044;-54
2021/09/13 13:00:20;;;;;;;1.98;0.90;;;;;;;;;;5048297;28;20021;-52
2021/09/13 13:03:05;;;;;;;2.10;0.80;;;;;;;;;;5044458;28;20038;-57
2021/09/13 13:05:32;;;;;;;0.98;0.55;;;;;;;;;;5047357;28;20489;-56
2021/09/13 13:08:00;;;;;;;1.63;0.95;;;;;;;;;;5042585;28;20037;-56
2021/09/13 13:10:26;;;;;;;0.57;0.55;;;;;;;;;;5049396;28;20028;-55
2021/09/13 13:12:52;;;;;;;0.70;0.57;;;;;;;;;;5050175;28;20226;-56
2021/09/13 13:15:18;;;;;;;0.68;0.57;;;;;;;;;;5049567;28;20037;-57
2021/09/13 13:17:47;;;;;;;0.88;0.60;;;;;;;;;;5059475;28;20060;-57
2021/09/13 13:20:14;;;;;;;2.92;0.70;;;;;;;;;;5040680;28;20670;-58
2021/09/13 13:22:40;;;;;;;2.75;0.60;;;;;;;;;;5043379;28;20033;-55
2021/09/13 13:25:07;;;;;;;2.08;0.95;;;;;;;;;;5046898;28;20032;-57
2021/09/13 13:27:33;;;;;;;1.30;0.73;;;;;;;;;;5046112;28;20558;-56
2021/09/13 13:30:00;;;;;;;0.98;0.60;;;;;;;;;;5054313;28;20028;-58
2021/09/13 13:32:26;;;;;;;0.47;0.40;;;;;;;;;;5052412;28;20029;-55
2021/09/13 13:34:52;;;;;;;0.73;0.45;;;;;;;;;;5051221;28;20353;-57
2021/09/13 13:37:18;;;;;;;0.75;0.47;;;;;;;;;;5049795;28;20483;-56
2021/09/13 13:39:45;;;;;;;0.60;0.40;;;;;;;;;;5051530;28;20033;-57
2021/09/13 13:42:11;;;;;;;0.98;0.50;;;;;;;;;;5046163;28;20039;-56
2021/09/13 13:44:37;;;;;;;1.20;0.52;;;;;;;;;;5051130;28;20457;-56
2021/09/13 13:47:03;;;;;;;1.50;0.52;;;;;;;;;;5043747;28;20061;-56
2021/09/13 13:49:29;;;;;;;0.95;0.80;;;;;;;;;;5051224;28;20493;-56
2021/09/13 13:51:56;;;;;;;1.52;0.50;;;;;;;;;;5053665;28;20075;-56
2021/09/13 13:54:21;;;;;;;2.70;0.50;;;;;;;;;;5038637;28;20112;-57
2021/09/13 13:56:49;;;;;;;1.65;0.57;;;;;;;;;;5057147;28;20040;-54
2021/09/13 13:59:15;;;;;;;2.45;0.70;;;;;;;;;;5047033;28;20361;-55
2021/09/13 14:01:40;;;;;;;1.10;0.40;;;;;;;;;;5055326;28;20033;-56
2021/09/13 14:04:07;;;;;;;0.98;0.43;;;;;;;;;;5056430;28;20044;-56
2021/09/13 14:06:33;;;;;;;2.88;0.35;;;;;;;;;;5051691;28;20438;-58
2021/09/13 14:08:59;;;;;;;1.33;0.40;;;;;;;;;;5048008;28;20107;-58
2021/09/13 14:11:25;;;;;;;0.30;0.22;;;;;;;;;;5042310;28;20469;-58
2021/09/13 14:13:51;;;;;;;1.75;0.30;;;;;;;;;;5044790;28;20513;-58
2021/09/13 14:16:17;;;;;;;3.05;0.50;;;;;;;;;;5050405;28;20458;-58
2021/09/13 14:18:43;;;;;;;2.70;0.45;;;;;;;;;;5056120;28;20060;-55
2021/09/13 14:21:12;;;;;;;2.25;0.50;;;;;;;;;;5053849;28;20516;-56
2021/09/13 14:23:38;;;;;;;0.90;0.32;;;;;;;;;;5055478;28;20481;-55
2021/09/13 14:26:04;;;;;;;2.58;0.60;;;;;;;;;;5051580;28;20459;-57
2021/09/13 14:28:30;;;;;;;0.77;0.43;;;;;;;;;;5054322;28;20393;-56
2021/09/13 14:30:56;;;;;;;0.68;0.50;;;;;;;;;;5045598;28;20045;-56
2021/09/13 14:33:22;;;;;;;0.73;0.30;;;;;;;;;;5053806;28;20039;-57
2021/09/13 14:35:48;;;;;;;0.45;0.38;;;;;;;;;;5053230;28;20029;-54
2021/09/13 14:38:14;;;;;;;1.02;0.45;;;;;;;;;;5049231;28;20025;-54
2021/09/13 14:40:40;;;;;;;1.50;0.50;;;;;;;;;;5038216;28;20033;-55
2021/09/13 14:43:06;;;;;;;0.60;0.38;;;;;;;;;;5041616;28;20038;-57